This is the latest recevied weather packets stored in our database for station/object S53BL-10. If no packets are shown the sender has not sent any weather packets the latest 10 day(s).
| Time | Temp. | Humidity | Pressure | Rain* | Wind** | Luminosity | Snow |
|---|---|---|---|---|---|---|---|
| 1777188085 | 16.67° C | 46% | 1015.1 hPa | - | - | - | - |
| 1777185383 | 11.67° C | 68% | 1014.7 hPa | - | - | - | - |
| 1777184482 | 11.11° C | 71% | 1014.6 hPa | - | - | - | - |
| 1777181779 | 9.44° C | 75% | 1014.4 hPa | - | - | - | - |
| 1777180879 | 8.89° C | 75% | 1014.2 hPa | - | - | - | - |
| 1777179978 | 8.89° C | 76% | 1014 hPa | - | - | - | - |
| 1777179077 | 8.33° C | 74% | 1013.9 hPa | - | - | - | - |
| 1777178176 | 8.33° C | 75% | 1013.7 hPa | - | - | - | - |
| 1777176375 | 8.89° C | 74% | 1013.4 hPa | - | - | - | - |
| 1777175474 | 8.89° C | 74% | 1013.1 hPa | - | - | - | - |
| 1777174573 | 8.89° C | 76% | 1012.9 hPa | - | - | - | - |
| 1777173672 | 8.89° C | 72% | 1012.8 hPa | - | - | - | - |
| 1777172771 | 9.44° C | 71% | 1012.7 hPa | - | - | - | - |
| 1777171871 | 9.44° C | 70% | 1012.6 hPa | - | - | - | - |
| 1777170970 | 9.44° C | 70% | 1012.5 hPa | - | - | - | - |
| 1777170069 | 10° C | 69% | 1012.4 hPa | - | - | - | - |
| 1777169168 | 10° C | 67% | 1012.2 hPa | - | - | - | - |
| 1777168267 | 10.56° C | 66% | 1012.1 hPa | - | - | - | - |
| 1777167366 | 10.56° C | 64% | 1012.1 hPa | - | - | - | - |
| 1777166466 | 10.56° C | 63% | 1012.1 hPa | - | - | - | - |
* Rain since midnight (hover to see other rain measurements)
** Current wind speed in m/s (hover to see current wind gust speed)